Hay Springs, Nebraska
Current Conditions -  °F | °C
As of 9:53 PM on Wednesday 22 Oct 2014 (Local Time) from KCDR Reporting Station
Clear Clear  
Wind Chill: 33°   Ceiling: Unl
Heat Index: 38°   Visibility: 10mi
Dew Point: 31°   Wind: 7mph
Humidity: 76%   Direction: 250°WSW
Pressure: 30.05"   Gusts: NA
Location:  42.68°N, 102.69°W
Report Text: KCDR 230353Z AUTO 25006KT 10SM CLR 03/M01 A3005 RMK AO2 SLP188 T00331006
Loading
Personal Weather Stations






























Interactive Weather Map
Tropical Storm Tracking
New forecast layout! Learn more

10-Day Weather Forecast

Advertisements
Track Severe Weather on mobile